Maximo Paz, Argentina
Current Conditions -  °F | °C
As of 8:00 AM on Wednesday 26 Nov 2014 (Local Time) from SAEZ Reporting Station
Haze Haze  
Wind Chill: 64°   Ceiling: Unl
Heat Index: 64°   Visibility: 1.8mi
Dew Point: 55°   Wind: 2mph
Humidity: 73%   Direction: 300°WNW
Pressure: 29.97"   Gusts: NA
Location:  34.93°S, 58.62°W
Report Text: SAEZ 261100Z 30002KT 3000 HZ NSC 18/13 Q1015
Loading
Personal Weather Stations






























Interactive Weather Map New forecast layout! Learn more

10-Day Weather Forecast

Advertisements
Track Severe Weather on mobile